createdAt,value
2023-04-09T00:01:21.984Z,14.02
2023-04-09T00:03:48.474Z,14.07
2023-04-09T00:06:15.616Z,13.25
2023-04-09T00:08:42.004Z,13.70
2023-04-09T00:11:08.510Z,13.15
2023-04-09T00:13:39.104Z,13.07
2023-04-09T00:16:07.508Z,13.77
2023-04-09T00:18:34.135Z,12.40
2023-04-09T00:21:00.624Z,13.05
2023-04-09T00:23:27.113Z,14.48
2023-04-09T00:25:53.654Z,13.00
2023-04-09T00:28:20.164Z,13.82
2023-04-09T00:30:46.719Z,13.18
2023-04-09T00:33:13.134Z,13.65
2023-04-09T00:35:39.572Z,13.38
2023-04-09T00:38:06.223Z,13.77
2023-04-09T00:40:32.954Z,13.95
2023-04-09T00:42:59.443Z,13.32
2023-04-09T00:45:26.025Z,15.32
2023-04-09T00:47:53.145Z,14.93
2023-04-09T00:50:19.866Z,14.80
2023-04-09T00:52:46.397Z,13.65
2023-04-09T00:55:13.753Z,13.65
2023-04-09T00:57:40.232Z,13.43
2023-04-09T01:00:07.808Z,13.32
2023-04-09T01:02:34.683Z,13.25
2023-04-09T01:05:01.506Z,14.07
2023-04-09T01:07:36.098Z,13.50
2023-04-09T01:10:27.865Z,14.13
2023-04-09T01:13:28.265Z,12.73
2023-04-09T01:15:59.247Z,13.18
2023-04-09T01:18:50.583Z,13.65
2023-04-09T01:21:20.460Z,14.15
2023-04-09T01:24:32.019Z,14.07
2023-04-09T01:27:05.404Z,13.75
2023-04-09T01:29:51.488Z,12.98
2023-04-09T01:32:20.582Z,13.85
2023-04-09T01:34:48.368Z,13.77
2023-04-09T01:37:16.763Z,12.82
2023-04-09T01:39:44.186Z,14.10
2023-04-09T01:42:12.133Z,13.82
2023-04-09T01:44:40.165Z,16.23
2023-04-09T01:47:08.609Z,17.77
2023-04-09T01:49:36.806Z,20.00
2023-04-09T01:52:03.873Z,18.15
2023-04-09T01:54:30.316Z,18.52
2023-04-09T01:56:57.694Z,16.95
2023-04-09T01:59:24.373Z,17.55
2023-04-09T02:01:58.362Z,19.02
2023-04-09T02:04:34.388Z,19.20
2023-04-09T02:07:15.667Z,18.13
2023-04-09T02:09:45.973Z,17.65
2023-04-09T02:12:16.363Z,17.02
2023-04-09T02:14:46.123Z,16.98
2023-04-09T02:17:13.322Z,15.70
2023-04-09T02:19:47.717Z,16.02
2023-04-09T02:22:15.335Z,15.38
2023-04-09T02:24:41.916Z,14.02
2023-04-09T02:27:08.620Z,14.18
2023-04-09T02:29:35.155Z,14.75
2023-04-09T02:32:01.617Z,14.95
2023-04-09T02:34:28.430Z,13.65
2023-04-09T02:36:55.116Z,13.90
2023-04-09T02:39:21.517Z,13.65
2023-04-09T02:41:48.375Z,14.10
2023-04-09T02:44:14.811Z,14.32
2023-04-09T02:46:42.177Z,13.70
2023-04-09T02:49:08.719Z,12.85
2023-04-09T02:51:36.053Z,12.98
2023-04-09T02:54:03.194Z,13.55
2023-04-09T02:56:29.760Z,13.00
2023-04-09T02:58:56.410Z,14.10
2023-04-09T03:01:23.049Z,14.20
2023-04-09T03:03:49.988Z,14.13
2023-04-09T03:06:18.297Z,13.43
2023-04-09T03:08:44.887Z,13.55
2023-04-09T03:11:11.371Z,15.32
2023-04-09T03:13:38.179Z,14.63
2023-04-09T03:16:05.017Z,14.52
2023-04-09T03:18:31.508Z,12.80
2023-04-09T03:20:57.991Z,12.27
2023-04-09T03:23:25.701Z,13.82
2023-04-09T03:26:03.006Z,12.82
2023-04-09T03:28:33.580Z,13.40
2023-04-09T03:31:00.327Z,14.10
2023-04-09T03:33:27.267Z,13.40
2023-04-09T03:35:55.935Z,14.23
2023-04-09T03:38:35.632Z,12.85
2023-04-09T03:41:07.881Z,13.60
2023-04-09T03:43:34.473Z,12.90
2023-04-09T03:46:01.178Z,13.57
2023-04-09T03:48:27.805Z,14.70
2023-04-09T03:50:56.653Z,13.50
2023-04-09T03:53:33.869Z,12.52
2023-04-09T03:56:04.567Z,13.75
2023-04-09T03:58:31.908Z,12.52
2023-04-09T04:00:58.903Z,13.63
2023-04-09T04:03:39.088Z,13.25
2023-04-09T04:06:34.983Z,12.63
2023-04-09T04:09:22.102Z,11.95
2023-04-09T04:11:53.921Z,12.02
2023-04-09T04:14:22.616Z,13.20
2023-04-09T04:16:54.696Z,12.77
2023-04-09T04:19:26.218Z,13.65
2023-04-09T04:21:52.711Z,12.25
2023-04-09T04:24:19.485Z,12.73
2023-04-09T04:26:45.994Z,11.48
2023-04-09T04:29:15.719Z,12.90
2023-04-09T04:31:55.357Z,13.07
2023-04-09T04:34:24.578Z,12.15
2023-04-09T04:36:59.265Z,13.13
2023-04-09T04:39:31.017Z,13.02
2023-04-09T04:42:02.095Z,12.10
2023-04-09T04:44:28.739Z,13.30
2023-04-09T04:47:04.037Z,12.60
2023-04-09T04:49:31.660Z,13.05
2023-04-09T04:52:00.814Z,12.57
2023-04-09T04:54:27.397Z,12.73
2023-04-09T04:56:57.173Z,12.50
2023-04-09T04:59:38.855Z,12.65
2023-04-09T05:02:07.593Z,12.07
2023-04-09T05:04:57.960Z,12.93
2023-04-09T05:07:33.620Z,11.93
2023-04-09T05:10:00.656Z,13.95
2023-04-09T05:12:32.494Z,12.35
2023-04-09T05:15:00.272Z,12.77
2023-04-09T05:17:26.948Z,11.63
2023-04-09T05:19:54.020Z,11.70
2023-04-09T05:22:27.053Z,12.35
2023-04-09T05:24:53.730Z,12.77
2023-04-09T05:27:22.093Z,12.27
2023-04-09T05:29:49.903Z,14.43
2023-04-09T05:32:16.987Z,13.02
2023-04-09T05:34:44.145Z,14.05
2023-04-09T05:37:10.893Z,14.13
2023-04-09T05:39:38.357Z,13.30
2023-04-09T05:42:04.926Z,12.95
2023-04-09T05:44:50.875Z,13.50
2023-04-09T05:47:19.809Z,14.60
2023-04-09T05:49:58.752Z,14.32
2023-04-09T05:52:25.252Z,14.90
2023-04-09T05:54:52.781Z,14.73
2023-04-09T05:57:26.282Z,14.45
2023-04-09T05:59:58.523Z,14.63
2023-04-09T06:02:25.395Z,14.32
2023-04-09T06:04:53.899Z,15.13
2023-04-09T06:07:20.970Z,14.90
2023-04-09T06:09:47.503Z,15.23
2023-04-09T06:12:14.035Z,14.48
2023-04-09T06:14:41.499Z,15.52
2023-04-09T06:17:08.222Z,15.70
2023-04-09T06:19:34.859Z,14.93
2023-04-09T06:22:01.390Z,14.80
2023-04-09T06:24:27.960Z,15.68
2023-04-09T06:26:54.464Z,13.98
2023-04-09T06:29:23.112Z,13.85
2023-04-09T06:31:50.671Z,14.95
2023-04-09T06:34:17.115Z,13.85
2023-04-09T06:36:44.472Z,13.98
2023-04-09T06:39:10.866Z,13.77
2023-04-09T06:41:37.334Z,17.35
2023-04-09T06:44:11.772Z,12.55
2023-04-09T06:46:38.373Z,12.70
2023-04-09T06:49:05.926Z,12.63
2023-04-09T06:51:32.548Z,12.70
2023-04-09T06:53:59.093Z,12.15
2023-04-09T06:56:25.715Z,11.88
2023-04-09T06:58:52.164Z,12.13
2023-04-09T07:01:18.877Z,12.20
2023-04-09T07:03:46.397Z,12.38
2023-04-09T07:06:12.942Z,10.88
2023-04-09T07:08:39.347Z,12.60
2023-04-09T07:11:05.762Z,13.00
2023-04-09T07:13:33.090Z,12.50
2023-04-09T07:15:59.991Z,11.77
2023-04-09T07:18:27.100Z,11.73
2023-04-09T07:20:53.768Z,12.68
2023-04-09T07:23:20.454Z,10.32
2023-04-09T07:25:47.192Z,11.40
2023-04-09T07:28:13.954Z,12.00
2023-04-09T07:30:40.382Z,12.00
2023-04-09T07:33:06.926Z,11.40
2023-04-09T07:35:34.687Z,12.30
2023-04-09T07:38:01.185Z,11.02
2023-04-09T07:40:27.607Z,11.27
2023-04-09T07:42:55.605Z,11.23
2023-04-09T07:45:22.027Z,10.32
2023-04-09T07:47:48.489Z,10.65
2023-04-09T07:50:14.992Z,11.23
2023-04-09T07:52:41.899Z,11.30
2023-04-09T07:55:08.737Z,12.45
2023-04-09T07:57:35.224Z,11.05
2023-04-09T08:00:02.237Z,11.45
2023-04-09T08:02:39.592Z,11.23
2023-04-09T08:05:07.719Z,11.70
2023-04-09T08:07:34.224Z,12.13
2023-04-09T08:10:00.943Z,12.77
2023-04-09T08:12:27.677Z,11.85
2023-04-09T08:14:54.082Z,12.23
2023-04-09T08:17:20.586Z,11.77
2023-04-09T08:19:47.109Z,12.60
2023-04-09T08:22:13.641Z,11.55
2023-04-09T08:24:40.177Z,12.25
2023-04-09T08:27:06.603Z,12.45
2023-04-09T08:29:34.379Z,14.27
2023-04-09T08:32:01.198Z,13.18
2023-04-09T08:34:28.066Z,13.00
2023-04-09T08:36:54.485Z,12.40
2023-04-09T08:39:21.122Z,12.73
2023-04-09T08:41:48.293Z,13.32
2023-04-09T08:44:14.789Z,15.07
2023-04-09T08:46:41.304Z,14.15
2023-04-09T08:49:09.522Z,13.80
2023-04-09T08:51:35.983Z,15.13
2023-04-09T08:54:04.828Z,16.05
2023-04-09T08:56:31.961Z,16.25
2023-04-09T08:58:58.592Z,17.02
2023-04-09T09:01:29.812Z,16.15
2023-04-09T09:04:07.790Z,16.65
2023-04-09T09:06:39.622Z,16.08
2023-04-09T09:09:13.602Z,16.30
2023-04-09T09:11:42.491Z,14.65
2023-04-09T09:14:14.334Z,15.60
2023-04-09T09:17:03.699Z,19.55
2023-04-09T09:19:36.352Z,17.08
2023-04-09T09:22:04.959Z,16.45
2023-04-09T09:24:35.142Z,14.98
2023-04-09T09:27:02.884Z,17.00
2023-04-09T09:31:56.601Z,17.42
2023-04-09T09:34:24.842Z,20.83
2023-04-09T09:36:51.399Z,17.98
2023-04-09T09:39:18.066Z,22.80
2023-04-09T09:41:46.276Z,16.02
2023-04-09T09:44:29.968Z,16.98
2023-04-09T09:47:00.701Z,21.48
2023-04-09T09:49:27.145Z,16.52
2023-04-09T09:51:57.865Z,15.75
2023-04-09T09:54:25.570Z,20.02
2023-04-09T09:56:55.806Z,18.92
2023-04-09T09:59:32.005Z,15.48
2023-04-09T10:02:05.765Z,15.70
2023-04-09T10:07:05.689Z,14.98
2023-04-09T10:09:35.821Z,14.45
2023-04-09T10:12:06.847Z,13.85
2023-04-09T10:14:35.814Z,14.20
2023-04-09T10:17:03.965Z,15.20
2023-04-09T10:22:10.486Z,13.77
2023-04-09T10:24:37.534Z,14.43
2023-04-09T10:27:16.412Z,13.30
2023-04-09T10:29:48.105Z,13.80
2023-04-09T10:32:23.652Z,14.00
2023-04-09T10:34:50.706Z,13.48
2023-04-09T10:37:23.198Z,13.25
2023-04-09T10:39:53.317Z,13.02
2023-04-09T10:42:24.884Z,14.32
2023-04-09T10:45:11.912Z,13.38
2023-04-09T10:47:40.143Z,13.65
2023-04-09T10:50:33.233Z,14.05
2023-04-09T10:53:00.643Z,13.43
2023-04-09T10:55:40.801Z,13.05
2023-04-09T10:58:13.666Z,13.48
2023-04-09T11:00:45.424Z,12.73
2023-04-09T11:03:23.220Z,12.93
2023-04-09T11:06:05.955Z,12.60
2023-04-09T11:08:33.713Z,11.98
2023-04-09T11:11:02.073Z,12.25
2023-04-09T11:15:56.924Z,10.93
2023-04-09T11:18:29.081Z,10.63
2023-04-09T11:21:01.028Z,9.55
2023-04-09T11:23:28.195Z,9.75
2023-04-09T11:25:55.747Z,8.98
2023-04-09T11:28:23.560Z,9.02
2023-04-09T11:30:53.188Z,8.75
2023-04-09T11:33:20.674Z,9.02
2023-04-09T11:35:47.928Z,8.10
2023-04-09T11:38:14.517Z,7.93
2023-04-09T11:40:47.861Z,8.05
2023-04-09T11:43:16.548Z,8.20
2023-04-09T11:48:10.814Z,8.65
2023-04-09T11:50:38.190Z,7.15
2023-04-09T11:53:21.100Z,7.70
2023-04-09T11:55:51.229Z,7.07
2023-04-09T11:58:18.373Z,6.97
2023-04-09T12:00:45.448Z,6.72
2023-04-09T12:03:12.274Z,6.43
2023-04-09T12:05:41.085Z,6.32
2023-04-09T12:08:08.803Z,7.22
2023-04-09T12:10:37.993Z,7.80
2023-04-09T12:13:10.239Z,6.50
2023-04-09T12:15:38.917Z,5.65
2023-04-09T12:20:39.730Z,6.22
2023-04-09T12:23:07.640Z,6.43
2023-04-09T12:25:42.846Z,7.28
2023-04-09T12:28:12.247Z,7.60
2023-04-09T12:30:38.711Z,6.45
2023-04-09T12:33:05.725Z,6.35
2023-04-09T12:35:32.664Z,6.60
2023-04-09T12:38:03.187Z,6.38
2023-04-09T12:40:29.655Z,7.32
2023-04-09T12:42:56.549Z,7.72
2023-04-09T12:45:23.218Z,7.82
2023-04-09T12:47:49.833Z,6.80
2023-04-09T12:50:16.667Z,7.45
2023-04-09T12:52:44.027Z,7.22
2023-04-09T12:55:11.539Z,6.90
2023-04-09T12:57:39.644Z,7.35
2023-04-09T13:00:07.735Z,7.32
2023-04-09T13:02:35.481Z,7.35
2023-04-09T13:05:02.819Z,7.63
2023-04-09T13:07:29.387Z,6.85
2023-04-09T13:09:57.037Z,7.47
2023-04-09T13:12:24.110Z,7.50
2023-04-09T13:14:54.015Z,7.57
2023-04-09T13:17:20.509Z,7.65
2023-04-09T13:19:47.100Z,7.93
2023-04-09T13:22:13.539Z,7.88
2023-04-09T13:24:40.066Z,8.05
2023-04-09T13:27:09.385Z,8.00
2023-04-09T13:29:36.137Z,7.25
2023-04-09T13:32:06.933Z,6.90
2023-04-09T13:34:34.988Z,6.97
2023-04-09T13:37:02.843Z,6.75
2023-04-09T13:39:29.455Z,6.10
2023-04-09T13:41:56.239Z,7.13
2023-04-09T13:44:24.315Z,6.55
2023-04-09T13:46:50.953Z,6.90
2023-04-09T13:49:17.702Z,6.72
2023-04-09T13:51:44.452Z,6.22
2023-04-09T13:54:11.290Z,6.70
2023-04-09T13:56:38.961Z,6.43
2023-04-09T13:59:06.324Z,6.63
2023-04-09T14:01:33.685Z,6.70
2023-04-09T14:04:00.335Z,6.47
2023-04-09T14:06:27.130Z,6.43
2023-04-09T14:08:53.771Z,6.45
2023-04-09T14:11:20.697Z,6.20
2023-04-09T14:13:47.303Z,6.70
2023-04-09T14:16:13.816Z,6.28
2023-04-09T14:18:40.302Z,6.10
2023-04-09T14:21:09.867Z,6.03
2023-04-09T14:23:36.793Z,6.50
2023-04-09T14:26:04.325Z,6.63
2023-04-09T14:28:32.010Z,6.30
2023-04-09T14:30:59.484Z,6.47
2023-04-09T14:33:26.505Z,6.57
2023-04-09T14:35:53.060Z,5.22
2023-04-09T14:38:19.587Z,6.75
2023-04-09T14:40:46.171Z,6.75
2023-04-09T14:43:12.620Z,5.93
2023-04-09T14:45:39.180Z,6.40
2023-04-09T14:48:05.812Z,6.88
2023-04-09T14:50:33.779Z,6.70
2023-04-09T14:53:01.486Z,7.38
2023-04-09T14:55:28.295Z,6.57
2023-04-09T14:57:54.962Z,6.93
2023-04-09T15:00:22.365Z,6.63
2023-04-09T15:02:49.124Z,7.63
2023-04-09T15:05:16.060Z,7.20
2023-04-09T15:07:43.617Z,6.68
2023-04-09T15:10:10.778Z,7.00
2023-04-09T15:12:37.581Z,6.63
2023-04-09T15:15:08.244Z,7.65
2023-04-09T15:17:34.798Z,6.90
2023-04-09T15:20:01.333Z,6.93
2023-04-09T15:22:27.874Z,6.97
2023-04-09T15:24:54.337Z,7.30
2023-04-09T15:27:20.969Z,7.90
2023-04-09T15:29:47.414Z,7.00
2023-04-09T15:32:13.806Z,6.53
2023-04-09T15:34:40.316Z,7.10
2023-04-09T15:37:06.804Z,7.10
2023-04-09T15:39:33.376Z,6.75
2023-04-09T15:41:59.991Z,7.07
2023-04-09T15:44:26.382Z,6.80
2023-04-09T15:46:52.967Z,6.60
2023-04-09T15:49:19.959Z,5.95
2023-04-09T15:51:46.568Z,6.30
2023-04-09T15:54:13.090Z,6.00
2023-04-09T15:56:40.358Z,6.38
2023-04-09T15:59:08.286Z,6.82
2023-04-09T16:01:36.624Z,6.00
2023-04-09T16:04:04.742Z,6.10
2023-04-09T16:06:31.745Z,6.93
2023-04-09T16:08:58.338Z,6.03
2023-04-09T16:11:24.837Z,6.55
2023-04-09T16:13:51.421Z,6.50
2023-04-09T16:16:17.998Z,5.82
2023-04-09T16:18:44.547Z,5.70
2023-04-09T16:21:11.154Z,6.07
2023-04-09T16:23:38.453Z,5.90
2023-04-09T16:26:05.735Z,6.32
2023-04-09T16:28:32.297Z,5.88
2023-04-09T16:30:59.399Z,6.40
2023-04-09T16:33:26.188Z,6.05
2023-04-09T16:35:52.906Z,5.35
2023-04-09T16:38:19.376Z,5.93
2023-04-09T16:40:45.944Z,6.05
2023-04-09T16:43:12.436Z,6.55
2023-04-09T16:45:38.866Z,6.47
2023-04-09T16:48:10.799Z,6.57
2023-04-09T16:50:38.464Z,6.35
2023-04-09T16:53:04.930Z,6.60
2023-04-09T16:55:31.432Z,6.85
2023-04-09T16:57:58.831Z,6.78
2023-04-09T17:00:25.601Z,6.80
2023-04-09T17:02:52.323Z,6.53
2023-04-09T17:05:19.172Z,6.93
2023-04-09T17:07:45.610Z,6.47
2023-04-09T17:10:12.198Z,7.13
2023-04-09T17:12:38.893Z,6.60
2023-04-09T17:15:05.737Z,6.88
2023-04-09T17:17:33.311Z,6.50
2023-04-09T17:20:01.398Z,8.18
2023-04-09T17:22:27.960Z,6.78
2023-04-09T17:24:54.434Z,7.00
2023-04-09T17:27:20.893Z,7.35
2023-04-09T17:29:47.401Z,6.72
2023-04-09T17:32:13.850Z,7.03
2023-04-09T17:34:40.353Z,7.40
2023-04-09T17:37:07.271Z,7.15
2023-04-09T17:39:33.661Z,6.68
2023-04-09T17:42:03.596Z,7.43
2023-04-09T17:44:33.389Z,7.32
2023-04-09T17:46:59.925Z,6.55
2023-04-09T17:49:29.926Z,7.25
2023-04-09T17:51:56.323Z,7.32
2023-04-09T17:54:22.783Z,6.85
2023-04-09T17:56:49.378Z,6.70
2023-04-09T17:59:15.960Z,6.90
2023-04-09T18:01:42.465Z,7.47
2023-04-09T18:04:09.459Z,7.90
2023-04-09T18:06:36.049Z,7.28
2023-04-09T18:09:02.568Z,7.05
2023-04-09T18:11:29.069Z,6.75
2023-04-09T18:13:55.716Z,6.97
2023-04-09T18:16:23.250Z,7.13
2023-04-09T18:18:49.929Z,7.07
2023-04-09T18:21:16.819Z,6.72
2023-04-09T18:23:43.350Z,7.07
2023-04-09T18:26:09.852Z,7.25
2023-04-09T18:28:36.545Z,7.25
2023-04-09T18:31:03.268Z,6.57
2023-04-09T18:33:29.728Z,6.80
2023-04-09T18:35:59.693Z,7.75
2023-04-09T18:38:28.512Z,7.32
2023-04-09T18:40:56.407Z,7.55
2023-04-09T18:43:23.021Z,8.30
2023-04-09T18:45:49.629Z,8.18
2023-04-09T18:48:16.079Z,7.32
2023-04-09T18:50:42.565Z,7.70
2023-04-09T18:53:09.103Z,7.90
2023-04-09T18:55:38.564Z,7.65
2023-04-09T18:58:08.567Z,7.68
2023-04-09T19:00:36.298Z,8.20
2023-04-09T19:03:03.153Z,7.93
2023-04-09T19:05:31.661Z,7.70
2023-04-09T19:07:59.546Z,8.25
2023-04-09T19:10:26.208Z,7.70
2023-04-09T19:12:53.800Z,8.27
2023-04-09T19:15:29.201Z,8.40
2023-04-09T19:17:56.533Z,9.45
2023-04-09T19:20:23.166Z,15.13
2023-04-09T19:22:50.257Z,15.50
2023-04-09T19:25:18.253Z,20.48
2023-04-09T19:27:45.717Z,21.33
2023-04-09T19:30:12.561Z,26.27
2023-04-09T19:32:39.709Z,26.73
2023-04-09T19:35:07.102Z,24.85
2023-04-09T19:37:34.657Z,21.60
2023-04-09T19:40:04.303Z,18.45
2023-04-09T19:42:34.551Z,14.10
2023-04-09T19:45:01.037Z,13.63
2023-04-09T19:47:28.127Z,12.88
2023-04-09T19:49:54.815Z,11.55
2023-04-09T19:52:21.559Z,12.25
2023-04-09T19:54:48.045Z,10.80
2023-04-09T19:57:15.297Z,10.82
2023-04-09T19:59:41.801Z,11.75
2023-04-09T20:02:08.385Z,12.65
2023-04-09T20:04:34.864Z,11.02
2023-04-09T20:07:01.473Z,11.55
2023-04-09T20:09:29.000Z,11.23
2023-04-09T20:11:55.506Z,11.93
2023-04-09T20:14:22.034Z,10.30
2023-04-09T20:16:48.625Z,10.02
2023-04-09T20:19:15.148Z,10.23
2023-04-09T20:21:43.534Z,10.23
2023-04-09T20:24:09.997Z,9.68
2023-04-09T20:26:36.506Z,9.93
2023-04-09T20:29:03.041Z,9.45
2023-04-09T20:31:30.776Z,10.23
2023-04-09T20:33:57.280Z,10.32
2023-04-09T20:36:23.752Z,9.85
2023-04-09T20:38:50.222Z,10.02
2023-04-09T20:41:16.668Z,9.82
2023-04-09T20:43:43.090Z,10.40
2023-04-09T20:46:09.602Z,9.60
2023-04-09T20:48:36.326Z,9.60
2023-04-09T20:51:08.553Z,9.68
2023-04-09T20:53:35.016Z,9.70
2023-04-09T20:56:02.056Z,10.25
2023-04-09T20:58:28.966Z,10.23
2023-04-09T21:01:07.237Z,10.60
2023-04-09T21:03:34.954Z,11.30
2023-04-09T21:06:02.101Z,10.23
2023-04-09T21:08:29.398Z,10.15
2023-04-09T21:10:56.240Z,10.38
2023-04-09T21:13:23.224Z,9.77
2023-04-09T21:15:49.924Z,10.73
2023-04-09T21:18:17.265Z,9.80
2023-04-09T21:20:46.085Z,9.77
2023-04-09T21:23:13.322Z,9.48
2023-04-09T21:25:39.806Z,9.70
2023-04-09T21:28:06.859Z,9.88
2023-04-09T21:30:34.098Z,9.32
2023-04-09T21:33:02.361Z,9.60
2023-04-09T21:35:28.778Z,9.52
2023-04-09T21:37:55.262Z,9.30
2023-04-09T21:40:23.252Z,9.68
2023-04-09T21:42:50.202Z,9.02
2023-04-09T21:45:18.222Z,9.75
2023-04-09T21:47:45.591Z,8.93
2023-04-09T21:50:12.001Z,8.82
2023-04-09T21:52:38.452Z,8.75
2023-04-09T21:55:05.503Z,9.15
2023-04-09T21:57:32.050Z,9.15
2023-04-09T21:59:58.693Z,9.05
2023-04-09T22:02:25.259Z,9.32
2023-04-09T22:04:51.898Z,9.27
2023-04-09T22:07:18.386Z,9.02
2023-04-09T22:09:44.855Z,9.43
2023-04-09T22:12:11.439Z,9.32
2023-04-09T22:14:39.129Z,9.85
2023-04-09T22:17:08.499Z,9.70
2023-04-09T22:19:35.125Z,10.35
2023-04-09T22:22:01.593Z,9.88
2023-04-09T22:24:29.990Z,9.88
2023-04-09T22:26:58.857Z,10.35
2023-04-09T22:31:52.666Z,10.18
2023-04-09T22:34:21.553Z,10.85
2023-04-09T22:36:48.791Z,10.57
2023-04-09T22:39:15.683Z,9.90
2023-04-09T22:41:42.192Z,10.27
2023-04-09T22:44:09.422Z,10.30
2023-04-09T22:46:36.720Z,10.77
2023-04-09T22:49:05.622Z,10.20
2023-04-09T22:51:34.349Z,10.35
2023-04-09T22:54:01.409Z,10.35
2023-04-09T22:56:27.812Z,10.30
2023-04-09T22:58:54.494Z,10.57
2023-04-09T23:01:22.211Z,10.40
2023-04-09T23:03:50.056Z,9.95
2023-04-09T23:06:19.210Z,10.63
2023-04-09T23:08:45.695Z,11.40
2023-04-09T23:11:12.160Z,10.57
2023-04-09T23:13:38.828Z,10.13
2023-04-09T23:16:10.909Z,10.32
2023-04-09T23:18:37.794Z,11.07
2023-04-09T23:21:06.913Z,10.10
2023-04-09T23:23:34.309Z,10.43
2023-04-09T23:26:00.962Z,10.18
2023-04-09T23:28:28.185Z,10.95
2023-04-09T23:30:55.261Z,9.98
2023-04-09T23:33:21.679Z,10.95
2023-04-09T23:35:48.312Z,9.88
2023-04-09T23:38:15.527Z,9.85
2023-04-09T23:40:42.649Z,10.05
2023-04-09T23:43:09.211Z,9.13
2023-04-09T23:45:35.685Z,9.73
2023-04-09T23:48:03.276Z,9.68
2023-04-09T23:50:30.357Z,9.73
2023-04-09T23:53:03.357Z,9.35
2023-04-09T23:55:29.861Z,9.38
2023-04-09T23:57:56.454Z,9.63
